createdAt,value
2023-05-02T00:00:23.184Z,1015.75
2023-05-02T00:01:23.225Z,1015.70
2023-05-02T00:02:23.280Z,1015.76
2023-05-02T00:03:23.267Z,1015.81
2023-05-02T00:04:23.181Z,1015.78
2023-05-02T00:05:23.147Z,1015.78
2023-05-02T00:06:23.167Z,1015.79
2023-05-02T00:07:23.149Z,1015.81
2023-05-02T00:08:23.133Z,1015.76
2023-05-02T00:09:23.120Z,1015.78
2023-05-02T00:10:23.071Z,1015.78
2023-05-02T00:11:23.071Z,1015.77
2023-05-02T00:12:23.075Z,1015.83
2023-05-02T00:13:23.060Z,1015.82
2023-05-02T00:14:23.006Z,1015.81
2023-05-02T00:15:23.043Z,1015.87
2023-05-02T00:16:23.070Z,1015.84
2023-05-02T00:17:23.096Z,1015.86
2023-05-02T00:18:22.973Z,1015.89
2023-05-02T00:19:23.001Z,1015.83
2023-05-02T00:20:22.939Z,1015.85
2023-05-02T00:21:22.944Z,1015.85
2023-05-02T00:22:22.908Z,1015.84
2023-05-02T00:23:22.899Z,1015.85
2023-05-02T00:24:22.957Z,1015.85
2023-05-02T00:25:22.877Z,1015.91
2023-05-02T00:26:22.848Z,1015.80
2023-05-02T00:27:22.847Z,1015.86
2023-05-02T00:28:22.865Z,1015.88
2023-05-02T00:29:22.820Z,1015.87
2023-05-02T00:30:22.838Z,1015.90
2023-05-02T00:31:22.845Z,1015.97
2023-05-02T00:32:22.888Z,1015.91
2023-05-02T00:33:22.801Z,1016.00
2023-05-02T00:34:22.744Z,1015.97
2023-05-02T00:35:22.780Z,1015.99
2023-05-02T00:36:22.726Z,1016.02
2023-05-02T00:37:22.768Z,1016.05
2023-05-02T00:38:22.698Z,1016.04
2023-05-02T00:39:22.750Z,1016.07
2023-05-02T00:40:22.720Z,1016.04
2023-05-02T00:41:22.698Z,1016.10
2023-05-02T00:42:22.657Z,1016.10
2023-05-02T00:43:22.642Z,1016.13
2023-05-02T00:44:22.621Z,1016.05
2023-05-02T00:45:22.609Z,1016.15
2023-05-02T00:46:22.714Z,1016.16
2023-05-02T00:47:22.624Z,1016.10
2023-05-02T00:48:22.593Z,1016.17
2023-05-02T00:49:22.571Z,1016.17
2023-05-02T00:50:22.572Z,1016.22
2023-05-02T00:51:22.567Z,1016.20
2023-05-02T00:52:22.531Z,1016.22
2023-05-02T00:53:22.513Z,1016.23
2023-05-02T00:54:22.489Z,1016.29
2023-05-02T00:55:22.492Z,1016.25
2023-05-02T00:56:22.490Z,1016.23
2023-05-02T00:57:22.481Z,1016.25
2023-05-02T00:58:22.492Z,1016.20
2023-05-02T00:59:22.473Z,1016.28
2023-05-02T01:00:22.427Z,1016.27
2023-05-02T01:01:22.435Z,1016.22
2023-05-02T01:02:22.466Z,1016.26
2023-05-02T01:03:22.500Z,1016.33
2023-05-02T01:04:22.454Z,1016.28
2023-05-02T01:05:22.393Z,1016.29
2023-05-02T01:06:22.385Z,1016.31
2023-05-02T01:07:22.342Z,1016.38
2023-05-02T01:08:22.338Z,1016.40
2023-05-02T01:09:22.336Z,1016.39
2023-05-02T01:10:22.297Z,1016.42
2023-05-02T01:11:22.266Z,1016.44
2023-05-02T01:12:22.245Z,1016.40
2023-05-02T01:13:22.247Z,1016.41
2023-05-02T01:14:22.263Z,1016.38
2023-05-02T01:15:22.227Z,1016.39
2023-05-02T01:16:22.212Z,1016.43
2023-05-02T01:17:22.185Z,1016.41
2023-05-02T01:18:22.222Z,1016.44
2023-05-02T01:19:22.203Z,1016.47
2023-05-02T01:20:22.226Z,1016.39
2023-05-02T01:21:22.148Z,1016.38
2023-05-02T01:22:22.174Z,1016.40
2023-05-02T01:23:22.107Z,1016.49
2023-05-02T01:24:22.121Z,1016.46
2023-05-02T01:25:22.106Z,1016.46
2023-05-02T01:26:22.081Z,1016.54
2023-05-02T01:27:22.096Z,1016.53
2023-05-02T01:28:22.025Z,1016.52
2023-05-02T01:29:22.068Z,1016.55
2023-05-02T01:30:22.078Z,1016.53
2023-05-02T01:31:22.129Z,1016.64
2023-05-02T01:32:21.994Z,1016.65
2023-05-02T01:33:22.006Z,1016.58
2023-05-02T01:34:21.981Z,1016.62
2023-05-02T01:35:22.041Z,1016.69
2023-05-02T01:36:21.974Z,1016.68
2023-05-02T01:37:21.954Z,1016.64
2023-05-02T01:38:21.940Z,1016.63
2023-05-02T01:39:21.984Z,1016.64
2023-05-02T01:40:21.874Z,1016.67
2023-05-02T01:41:21.915Z,1016.67
2023-05-02T01:42:21.872Z,1016.65
2023-05-02T01:43:21.890Z,1016.63
2023-05-02T01:44:21.847Z,1016.68
2023-05-02T01:45:21.873Z,1016.67
2023-05-02T01:46:21.835Z,1016.66
2023-05-02T01:47:21.836Z,1016.69
2023-05-02T01:48:21.792Z,1016.63
2023-05-02T01:49:21.797Z,1016.70
2023-05-02T01:50:21.843Z,1016.68
2023-05-02T01:51:21.765Z,1016.70
2023-05-02T01:52:21.735Z,1016.68
2023-05-02T01:53:21.724Z,1016.72
2023-05-02T01:54:21.768Z,1016.71
2023-05-02T01:55:21.711Z,1016.69
2023-05-02T01:56:21.691Z,1016.76
2023-05-02T01:57:21.716Z,1016.78
2023-05-02T01:58:21.679Z,1016.88
2023-05-02T01:59:21.675Z,1016.84
2023-05-02T02:00:21.637Z,1016.84
2023-05-02T02:01:21.697Z,1016.86
2023-05-02T02:02:21.638Z,1016.92
2023-05-02T02:03:21.699Z,1016.89
2023-05-02T02:04:21.660Z,1016.86
2023-05-02T02:05:21.562Z,1016.86
2023-05-02T02:06:21.639Z,1016.89
2023-05-02T02:07:21.555Z,1016.93
2023-05-02T02:08:21.521Z,1016.94
2023-05-02T02:09:21.525Z,1016.93
2023-05-02T02:10:21.527Z,1016.96
2023-05-02T02:11:21.493Z,1016.98
2023-05-02T02:12:21.555Z,1017.05
2023-05-02T02:13:21.453Z,1017.01
2023-05-02T02:14:21.506Z,1017.04
2023-05-02T02:15:21.450Z,1017.01
2023-05-02T02:16:21.444Z,1017.09
2023-05-02T02:17:21.403Z,1017.11
2023-05-02T02:18:21.444Z,1017.08
2023-05-02T02:19:21.368Z,1017.10
2023-05-02T02:20:21.406Z,1017.09
2023-05-02T02:21:21.408Z,1017.12
2023-05-02T02:22:21.362Z,1017.08
2023-05-02T02:23:21.338Z,1017.10
2023-05-02T02:24:21.313Z,1017.12
2023-05-02T02:25:21.346Z,1017.08
2023-05-02T02:26:21.274Z,1017.10
2023-05-02T02:27:21.289Z,1017.15
2023-05-02T02:28:21.267Z,1017.11
2023-05-02T02:29:21.294Z,1017.08
2023-05-02T02:30:21.227Z,1017.15
2023-05-02T02:31:21.432Z,1017.15
2023-05-02T02:32:21.216Z,1017.17
2023-05-02T02:33:21.186Z,1017.10
2023-05-02T02:34:21.184Z,1017.12
2023-05-02T02:35:21.239Z,1017.13
2023-05-02T02:36:21.133Z,1017.10
2023-05-02T02:37:21.133Z,1017.20
2023-05-02T02:38:21.153Z,1017.25
2023-05-02T02:39:21.145Z,1017.18
2023-05-02T02:40:21.090Z,1017.17
2023-05-02T02:41:21.104Z,1017.17
2023-05-02T02:42:21.048Z,1017.21
2023-05-02T02:43:21.056Z,1017.23
2023-05-02T02:44:21.054Z,1017.27
2023-05-02T02:45:21.053Z,1017.23
2023-05-02T02:46:21.058Z,1017.23
2023-05-02T02:47:21.045Z,1017.15
2023-05-02T02:48:20.990Z,1017.24
2023-05-02T02:49:20.989Z,1017.30
2023-05-02T02:50:20.983Z,1017.25
2023-05-02T02:51:20.975Z,1017.25
2023-05-02T02:52:21.078Z,1017.27
2023-05-02T02:53:20.916Z,1017.27
2023-05-02T02:54:27.042Z,1017.28
2023-05-02T02:55:21.914Z,1017.25
2023-05-02T02:56:20.877Z,1017.27
2023-05-02T02:57:20.925Z,1017.25
2023-05-02T02:58:20.935Z,1017.37
2023-05-02T02:59:20.897Z,1017.27
2023-05-02T03:00:20.873Z,1017.25
2023-05-02T03:01:20.904Z,1017.24
2023-05-02T03:02:20.940Z,1017.25
2023-05-02T03:03:20.889Z,1017.28
2023-05-02T03:04:20.815Z,1017.30
2023-05-02T03:05:20.759Z,1017.32
2023-05-02T03:06:20.846Z,1017.34
2023-05-02T03:07:20.759Z,1017.38
2023-05-02T03:08:20.846Z,1017.35
2023-05-02T03:09:20.731Z,1017.37
2023-05-02T03:10:20.708Z,1017.35
2023-05-02T03:11:20.703Z,1017.35
2023-05-02T03:12:20.692Z,1017.40
2023-05-02T03:13:20.694Z,1017.39
2023-05-02T03:14:20.664Z,1017.43
2023-05-02T03:15:20.632Z,1017.40
2023-05-02T03:16:20.687Z,1017.40
2023-05-02T03:17:20.676Z,1017.52
2023-05-02T03:18:20.640Z,1017.43
2023-05-02T03:19:20.624Z,1017.48
2023-05-02T03:20:20.593Z,1017.49
2023-05-02T03:21:20.550Z,1017.50
2023-05-02T03:22:20.527Z,1017.49
2023-05-02T03:23:20.551Z,1017.50
2023-05-02T03:24:20.496Z,1017.47
2023-05-02T03:25:20.537Z,1017.46
2023-05-02T03:26:20.475Z,1017.48
2023-05-02T03:27:20.472Z,1017.48
2023-05-02T03:28:20.494Z,1017.48
2023-05-02T03:29:20.444Z,1017.49
2023-05-02T03:30:20.428Z,1017.45
2023-05-02T03:31:20.465Z,1017.46
2023-05-02T03:32:20.404Z,1017.47
2023-05-02T03:33:20.438Z,1017.51
2023-05-02T03:34:20.509Z,1017.59
2023-05-02T03:35:20.405Z,1017.60
2023-05-02T03:36:20.367Z,1017.58
2023-05-02T03:37:20.360Z,1017.57
2023-05-02T03:38:20.320Z,1017.63
2023-05-02T03:39:20.359Z,1017.54
2023-05-02T03:40:20.313Z,1017.62
2023-05-02T03:41:20.288Z,1017.62
2023-05-02T03:42:20.284Z,1017.63
2023-05-02T03:43:20.283Z,1017.62
2023-05-02T03:44:20.269Z,1017.63
2023-05-02T03:45:20.273Z,1017.64
2023-05-02T03:46:20.256Z,1017.63
2023-05-02T03:47:20.258Z,1017.60
2023-05-02T03:48:20.189Z,1017.62
2023-05-02T03:49:20.259Z,1017.65
2023-05-02T03:50:20.206Z,1017.57
2023-05-02T03:51:20.171Z,1017.69
2023-05-02T03:52:20.156Z,1017.66
2023-05-02T03:53:20.124Z,1017.63
2023-05-02T03:54:20.161Z,1017.68
2023-05-02T03:55:20.114Z,1017.67
2023-05-02T03:56:20.168Z,1017.64
2023-05-02T03:57:20.102Z,1017.72
2023-05-02T03:58:20.132Z,1017.68
2023-05-02T03:59:20.039Z,1017.69
2023-05-02T04:00:20.061Z,1017.70
2023-05-02T04:01:20.071Z,1017.69
2023-05-02T04:02:20.061Z,1017.70
2023-05-02T04:03:20.076Z,1017.69
2023-05-02T04:04:20.082Z,1017.72
2023-05-02T04:05:19.985Z,1017.73
2023-05-02T04:06:20.049Z,1017.78
2023-05-02T04:07:19.976Z,1017.70
2023-05-02T04:08:19.948Z,1017.77
2023-05-02T04:09:19.933Z,1017.75
2023-05-02T04:10:19.938Z,1017.76
2023-05-02T04:11:19.973Z,1017.77
2023-05-02T04:12:19.919Z,1017.83
2023-05-02T04:13:19.907Z,1017.84
2023-05-02T04:14:19.965Z,1017.85
2023-05-02T04:15:19.845Z,1017.84
2023-05-02T04:16:19.940Z,1017.82
2023-05-02T04:17:19.869Z,1017.92
2023-05-02T04:18:19.799Z,1017.87
2023-05-02T04:19:19.805Z,1017.87
2023-05-02T04:20:19.775Z,1017.93
2023-05-02T04:21:19.792Z,1017.87
2023-05-02T04:22:19.745Z,1017.89
2023-05-02T04:23:19.754Z,1017.89
2023-05-02T04:24:19.730Z,1017.87
2023-05-02T04:25:19.721Z,1017.89
2023-05-02T04:26:19.734Z,1017.89
2023-05-02T04:27:19.712Z,1017.88
2023-05-02T04:28:19.672Z,1017.90
2023-05-02T04:29:19.653Z,1017.95
2023-05-02T04:30:19.704Z,1017.98
2023-05-02T04:31:19.676Z,1017.98
2023-05-02T04:32:19.619Z,1017.95
2023-05-02T04:33:19.650Z,1018.00
2023-05-02T04:34:19.651Z,1017.98
2023-05-02T04:35:19.600Z,1018.09
2023-05-02T04:36:19.575Z,1018.08
2023-05-02T04:37:21.052Z,1018.11
2023-05-02T04:38:19.569Z,1018.19
2023-05-02T04:39:19.533Z,1018.21
2023-05-02T04:40:19.540Z,1018.23
2023-05-02T04:41:19.518Z,1018.18
2023-05-02T04:42:19.504Z,1018.19
2023-05-02T04:43:19.557Z,1018.16
2023-05-02T04:44:19.456Z,1018.11
2023-05-02T04:45:19.461Z,1018.10
2023-05-02T04:46:19.565Z,1018.13
2023-05-02T04:47:19.502Z,1018.13
2023-05-02T04:48:19.417Z,1018.16
2023-05-02T04:49:19.381Z,1018.17
2023-05-02T04:50:19.398Z,1018.18
2023-05-02T04:51:19.360Z,1018.24
2023-05-02T04:52:19.389Z,1018.21
2023-05-02T04:53:19.380Z,1018.18
2023-05-02T04:54:19.359Z,1018.24
2023-05-02T04:55:19.326Z,1018.32
2023-05-02T04:56:19.348Z,1018.30
2023-05-02T04:57:20.401Z,1018.38
2023-05-02T04:58:19.293Z,1018.40
2023-05-02T04:59:19.241Z,1018.39
2023-05-02T05:00:19.293Z,1018.37
2023-05-02T05:01:19.300Z,1018.39
2023-05-02T05:02:19.355Z,1018.40
2023-05-02T05:03:19.289Z,1018.45
2023-05-02T05:04:19.361Z,1018.44
2023-05-02T05:05:19.210Z,1018.42
2023-05-02T05:06:19.214Z,1018.45
2023-05-02T05:07:19.160Z,1018.47
2023-05-02T05:08:19.191Z,1018.47
2023-05-02T05:09:19.113Z,1018.48
2023-05-02T05:10:19.141Z,1018.49
2023-05-02T05:11:19.102Z,1018.52
2023-05-02T05:12:19.124Z,1018.53
2023-05-02T05:13:19.105Z,1018.58
2023-05-02T05:14:19.093Z,1018.55
2023-05-02T05:15:19.090Z,1018.60
2023-05-02T05:16:19.089Z,1018.60
2023-05-02T05:17:19.050Z,1018.60
2023-05-02T05:18:19.057Z,1018.60
2023-05-02T05:19:19.004Z,1018.65
2023-05-02T05:20:19.005Z,1018.67
2023-05-02T05:21:18.981Z,1018.71
2023-05-02T05:22:18.989Z,1018.67
2023-05-02T05:23:18.989Z,1018.68
2023-05-02T05:24:18.987Z,1018.71
2023-05-02T05:25:18.927Z,1018.67
2023-05-02T05:26:18.938Z,1018.66
2023-05-02T05:27:18.924Z,1018.66
2023-05-02T05:28:18.990Z,1018.72
2023-05-02T05:29:18.893Z,1018.73
2023-05-02T05:30:18.886Z,1018.68
2023-05-02T05:31:18.846Z,1018.80
2023-05-02T05:32:18.841Z,1018.78
2023-05-02T05:33:18.928Z,1018.79
2023-05-02T05:34:18.920Z,1018.79
2023-05-02T05:35:18.768Z,1018.83
2023-05-02T05:36:18.769Z,1018.87
2023-05-02T05:37:18.762Z,1018.85
2023-05-02T05:38:18.823Z,1018.80
2023-05-02T05:39:18.736Z,1018.84
2023-05-02T05:40:18.729Z,1018.91
2023-05-02T05:41:18.735Z,1018.87
2023-05-02T05:42:18.698Z,1018.86
2023-05-02T05:43:18.679Z,1018.86
2023-05-02T05:44:18.659Z,1018.92
2023-05-02T05:45:18.666Z,1018.97
2023-05-02T05:46:18.652Z,1018.97
2023-05-02T05:47:18.681Z,1018.94
2023-05-02T05:48:18.700Z,1018.98
2023-05-02T05:49:18.684Z,1018.98
2023-05-02T05:50:18.644Z,1018.99
2023-05-02T05:51:18.600Z,1018.97
2023-05-02T05:52:18.615Z,1019.05
2023-05-02T05:53:18.616Z,1019.01
2023-05-02T05:54:18.581Z,1019.07
2023-05-02T05:55:18.554Z,1019.02
2023-05-02T05:56:18.554Z,1019.06
2023-05-02T05:57:18.505Z,1019.08
2023-05-02T05:58:18.494Z,1019.10
2023-05-02T05:59:18.507Z,1019.17
2023-05-02T06:00:18.496Z,1019.13
2023-05-02T06:01:18.450Z,1019.14
2023-05-02T06:02:18.513Z,1019.15
2023-05-02T06:03:18.480Z,1019.12
2023-05-02T06:04:18.474Z,1019.15
2023-05-02T06:05:18.430Z,1019.20
2023-05-02T06:06:18.414Z,1019.24
2023-05-02T06:07:18.377Z,1019.21
2023-05-02T06:08:18.391Z,1019.19
2023-05-02T06:09:18.381Z,1019.22
2023-05-02T06:10:18.398Z,1019.25
2023-05-02T06:11:18.304Z,1019.22
2023-05-02T06:12:18.313Z,1019.27
2023-05-02T06:13:18.297Z,1019.25
2023-05-02T06:14:18.313Z,1019.29
2023-05-02T06:15:18.267Z,1019.26
2023-05-02T06:16:18.275Z,1019.30
2023-05-02T06:17:18.241Z,1019.31
2023-05-02T06:18:18.215Z,1019.22
2023-05-02T06:19:18.232Z,1019.29
2023-05-02T06:20:18.859Z,1019.31
2023-05-02T06:21:18.227Z,1019.29
2023-05-02T06:22:18.197Z,1019.36
2023-05-02T06:23:18.173Z,1019.33
2023-05-02T06:24:18.186Z,1019.31
2023-05-02T06:25:18.185Z,1019.35
2023-05-02T06:26:18.159Z,1019.37
2023-05-02T06:27:18.103Z,1019.42
2023-05-02T06:28:18.106Z,1019.39
2023-05-02T06:29:18.075Z,1019.44
2023-05-02T06:30:18.113Z,1019.47
2023-05-02T06:31:18.081Z,1019.46
2023-05-02T06:32:18.058Z,1019.47
2023-05-02T06:33:18.042Z,1019.50
2023-05-02T06:34:18.026Z,1019.53
2023-05-02T06:35:17.999Z,1019.59
2023-05-02T06:36:17.995Z,1019.57
2023-05-02T06:37:17.958Z,1019.58
2023-05-02T06:38:17.989Z,1019.52
2023-05-02T06:39:17.955Z,1019.61
2023-05-02T06:40:17.948Z,1019.61
2023-05-02T06:41:18.446Z,1019.66
2023-05-02T06:42:17.950Z,1019.67
2023-05-02T06:43:17.915Z,1019.67
2023-05-02T06:44:17.908Z,1019.68
2023-05-02T06:45:17.892Z,1019.70
2023-05-02T06:46:17.902Z,1019.78
2023-05-02T06:47:17.926Z,1019.76
2023-05-02T06:48:17.849Z,1019.77
2023-05-02T06:49:17.801Z,1019.82
2023-05-02T06:50:17.838Z,1019.84
2023-05-02T06:51:17.764Z,1019.83
2023-05-02T06:52:17.827Z,1019.81
2023-05-02T06:53:17.761Z,1019.89
2023-05-02T06:54:17.788Z,1019.90
2023-05-02T06:55:17.786Z,1019.89
2023-05-02T06:56:17.741Z,1019.92
2023-05-02T06:57:17.723Z,1019.88
2023-05-02T06:58:17.691Z,1019.93
2023-05-02T06:59:17.713Z,1019.89
2023-05-02T07:00:17.699Z,1019.91
2023-05-02T07:01:17.771Z,1019.91
2023-05-02T07:02:17.686Z,1019.98
2023-05-02T07:03:17.637Z,1019.95
2023-05-02T07:04:17.645Z,1020.03
2023-05-02T07:05:17.636Z,1019.99
2023-05-02T07:06:17.629Z,1019.99
2023-05-02T07:07:17.569Z,1020.06
2023-05-02T07:08:17.558Z,1020.06
2023-05-02T07:09:17.530Z,1019.99
2023-05-02T07:10:17.578Z,1020.08
2023-05-02T07:11:17.531Z,1020.09
2023-05-02T07:12:17.539Z,1020.15
2023-05-02T07:13:17.554Z,1020.12
2023-05-02T07:14:17.480Z,1020.12
2023-05-02T07:15:17.453Z,1020.16
2023-05-02T07:16:17.575Z,1020.12
2023-05-02T07:17:17.445Z,1020.18
2023-05-02T07:18:17.502Z,1020.11
2023-05-02T07:19:17.426Z,1020.19
2023-05-02T07:20:17.466Z,1020.20
2023-05-02T07:21:17.389Z,1020.21
2023-05-02T07:22:17.403Z,1020.25
2023-05-02T07:23:17.340Z,1020.23
2023-05-02T07:24:17.377Z,1020.27
2023-05-02T07:25:17.386Z,1020.32
2023-05-02T07:26:17.330Z,1020.28
2023-05-02T07:27:17.335Z,1020.28
2023-05-02T07:28:17.319Z,1020.32
2023-05-02T07:29:17.293Z,1020.31
2023-05-02T07:30:17.316Z,1020.34
2023-05-02T07:31:18.951Z,1020.38
2023-05-02T07:32:17.355Z,1020.32
2023-05-02T07:33:17.303Z,1020.32
2023-05-02T07:34:17.238Z,1020.35
2023-05-02T07:35:17.229Z,1020.36
2023-05-02T07:36:17.211Z,1020.36
2023-05-02T07:37:17.172Z,1020.37
2023-05-02T07:38:17.163Z,1020.41
2023-05-02T07:39:17.181Z,1020.42
2023-05-02T07:40:17.210Z,1020.46
2023-05-02T07:41:17.140Z,1020.42
2023-05-02T07:42:17.104Z,1020.47
2023-05-02T07:43:17.114Z,1020.47
2023-05-02T07:44:17.118Z,1020.45
2023-05-02T07:45:17.368Z,1020.48
2023-05-02T07:46:17.137Z,1020.45
2023-05-02T07:47:17.036Z,1020.53
2023-05-02T07:48:17.202Z,1020.48
2023-05-02T07:49:17.062Z,1020.51
2023-05-02T07:50:17.052Z,1020.60
2023-05-02T07:51:16.986Z,1020.55
2023-05-02T07:52:16.999Z,1020.59
2023-05-02T07:53:16.983Z,1020.64
2023-05-02T07:54:16.963Z,1020.57
2023-05-02T07:55:16.927Z,1020.66
2023-05-02T07:56:16.970Z,1020.55
2023-05-02T07:57:16.903Z,1020.67
2023-05-02T07:58:16.916Z,1020.61
2023-05-02T07:59:16.878Z,1020.64
2023-05-02T08:00:16.919Z,1020.68
2023-05-02T08:01:17.150Z,1020.64
2023-05-02T08:02:16.884Z,1020.65
2023-05-02T08:03:16.926Z,1020.60
2023-05-02T08:04:17.005Z,1020.62
2023-05-02T08:05:16.857Z,1020.67
2023-05-02T08:06:16.935Z,1020.61
2023-05-02T08:07:16.798Z,1020.63
2023-05-02T08:08:16.828Z,1020.64
2023-05-02T08:09:16.780Z,1020.62
2023-05-02T08:10:16.757Z,1020.64
2023-05-02T08:11:16.803Z,1020.70
2023-05-02T08:12:16.709Z,1020.72
2023-05-02T08:13:16.738Z,1020.66
2023-05-02T08:14:16.746Z,1020.72
2023-05-02T08:15:16.723Z,1020.77
2023-05-02T08:16:16.798Z,1020.80
2023-05-02T08:17:16.691Z,1020.72
2023-05-02T08:18:16.658Z,1020.74
2023-05-02T08:19:16.650Z,1020.79
2023-05-02T08:20:16.638Z,1020.80
2023-05-02T08:21:16.630Z,1020.81
2023-05-02T08:22:16.581Z,1020.82
2023-05-02T08:23:16.615Z,1020.82
2023-05-02T08:24:16.570Z,1020.79
2023-05-02T08:25:16.569Z,1020.81
2023-05-02T08:26:16.551Z,1020.85
2023-05-02T08:27:16.530Z,1020.92
2023-05-02T08:28:16.500Z,1020.84
2023-05-02T08:29:16.522Z,1020.93
2023-05-02T08:30:16.472Z,1020.93
2023-05-02T08:31:16.565Z,1020.92
2023-05-02T08:32:16.644Z,1020.93
2023-05-02T08:33:16.563Z,1020.97
2023-05-02T08:34:16.465Z,1021.00
2023-05-02T08:35:16.429Z,1021.00
2023-05-02T08:36:16.418Z,1020.98
2023-05-02T08:37:16.432Z,1021.04
2023-05-02T08:38:16.402Z,1021.01
2023-05-02T08:39:16.371Z,1020.97
2023-05-02T08:40:18.702Z,1020.88
2023-05-02T08:41:17.357Z,1020.98
2023-05-02T08:42:16.321Z,1021.04
2023-05-02T08:43:16.346Z,1021.11
2023-05-02T08:44:16.305Z,1021.10
2023-05-02T08:45:16.814Z,1021.14
2023-05-02T08:46:16.449Z,1021.16
2023-05-02T08:47:16.308Z,1021.25
2023-05-02T08:48:16.308Z,1021.21
2023-05-02T08:49:16.262Z,1021.19
2023-05-02T08:50:16.244Z,1021.27
2023-05-02T08:51:16.220Z,1021.30
2023-05-02T08:52:16.218Z,1021.27
2023-05-02T08:53:16.215Z,1021.31
2023-05-02T08:54:16.166Z,1021.34
2023-05-02T08:55:16.173Z,1021.34
2023-05-02T08:56:16.167Z,1021.32
2023-05-02T08:57:16.145Z,1021.44
2023-05-02T08:58:17.520Z,1021.39
2023-05-02T08:59:16.120Z,1021.40
2023-05-02T09:00:16.118Z,1021.40
2023-05-02T09:01:16.244Z,1021.42
2023-05-02T09:02:16.086Z,1021.39
2023-05-02T09:03:16.080Z,1021.35
2023-05-02T09:04:16.136Z,1021.45
2023-05-02T09:05:16.121Z,1021.40
2023-05-02T09:06:16.044Z,1021.50
2023-05-02T09:07:16.122Z,1021.49
2023-05-02T09:08:15.997Z,1021.55
2023-05-02T09:09:17.738Z,1021.52
2023-05-02T09:10:15.928Z,1021.46
2023-05-02T09:11:16.017Z,1021.53
2023-05-02T09:12:15.951Z,1021.54
2023-05-02T09:13:15.913Z,1021.60
2023-05-02T09:14:15.956Z,1021.59
2023-05-02T09:15:18.246Z,1021.61
2023-05-02T09:16:15.900Z,1021.60
2023-05-02T09:17:15.903Z,1021.68
2023-05-02T09:18:15.887Z,1021.65
2023-05-02T09:19:15.871Z,1021.62
2023-05-02T09:20:16.084Z,1021.62
2023-05-02T09:21:17.992Z,1021.64
2023-05-02T09:22:15.847Z,1021.64
2023-05-02T09:23:15.788Z,1021.62
2023-05-02T09:24:15.748Z,1021.65
2023-05-02T09:25:15.812Z,1021.68
2023-05-02T09:26:15.737Z,1021.69
2023-05-02T09:27:15.749Z,1021.69
2023-05-02T09:28:15.745Z,1021.70
2023-05-02T09:29:15.700Z,1021.76
2023-05-02T09:30:15.707Z,1021.71
2023-05-02T09:31:23.024Z,1021.80
2023-05-02T09:32:16.824Z,1021.80
2023-05-02T09:33:16.946Z,1021.80
2023-05-02T09:34:15.657Z,1021.79
2023-05-02T09:35:15.653Z,1021.88
2023-05-02T09:36:15.621Z,1021.83
2023-05-02T09:37:15.622Z,1021.84
2023-05-02T09:38:15.600Z,1021.90
2023-05-02T09:39:15.586Z,1021.87
2023-05-02T09:40:15.556Z,1021.85
2023-05-02T09:41:15.608Z,1021.92
2023-05-02T09:42:15.546Z,1021.93
2023-05-02T09:43:15.562Z,1021.90
2023-05-02T09:44:15.503Z,1021.94
2023-05-02T09:45:15.506Z,1021.94
2023-05-02T09:46:15.550Z,1021.91
2023-05-02T09:47:15.490Z,1021.91
2023-05-02T09:48:15.555Z,1021.88
2023-05-02T09:49:15.426Z,1021.88
2023-05-02T09:50:15.415Z,1021.91
2023-05-02T09:51:15.427Z,1021.90
2023-05-02T09:52:15.529Z,1021.93
2023-05-02T09:53:15.399Z,1021.90
2023-05-02T09:54:15.400Z,1021.99
2023-05-02T09:55:15.360Z,1022.01
2023-05-02T09:56:15.367Z,1022.03
2023-05-02T09:57:15.383Z,1022.06
2023-05-02T09:58:15.314Z,1022.03
2023-05-02T09:59:15.329Z,1022.06
2023-05-02T10:00:15.278Z,1022.07
2023-05-02T10:01:15.334Z,1022.11
2023-05-02T10:02:15.294Z,1022.12
2023-05-02T10:03:15.418Z,1022.14
2023-05-02T10:04:15.262Z,1022.17
2023-05-02T10:05:15.247Z,1022.11
2023-05-02T10:06:15.539Z,1022.03
2023-05-02T10:07:15.195Z,1022.06
2023-05-02T10:08:15.196Z,1022.07
2023-05-02T10:09:19.686Z,1022.11
2023-05-02T10:10:16.206Z,1022.14
2023-05-02T10:11:15.143Z,1022.15
2023-05-02T10:12:15.154Z,1022.11
2023-05-02T10:13:15.121Z,1022.11
2023-05-02T10:14:15.113Z,1022.09
2023-05-02T10:15:15.123Z,1022.12
2023-05-02T10:16:15.118Z,1022.14
2023-05-02T10:17:15.152Z,1022.11
2023-05-02T10:18:15.111Z,1022.12
2023-05-02T10:19:15.109Z,1022.14
2023-05-02T10:20:15.007Z,1022.21
2023-05-02T10:21:15.050Z,1022.23
2023-05-02T10:22:14.974Z,1022.22
2023-05-02T10:23:15.030Z,1022.23
2023-05-02T10:24:15.002Z,1022.35
2023-05-02T10:25:14.969Z,1022.27
2023-05-02T10:26:14.965Z,1022.28
2023-05-02T10:27:14.935Z,1022.25
2023-05-02T10:28:14.892Z,1022.30
2023-05-02T10:29:14.996Z,1022.35
2023-05-02T10:30:14.886Z,1022.31
2023-05-02T10:31:14.902Z,1022.36
2023-05-02T10:32:14.900Z,1022.31
2023-05-02T10:33:15.154Z,1022.34
2023-05-02T10:34:14.842Z,1022.23
2023-05-02T10:35:14.852Z,1022.34
2023-05-02T10:36:14.831Z,1022.32
2023-05-02T10:37:14.805Z,1022.33
2023-05-02T10:38:14.772Z,1022.33
2023-05-02T10:39:14.817Z,1022.30
2023-05-02T10:40:14.811Z,1022.30
2023-05-02T10:41:14.775Z,1022.31
2023-05-02T10:42:14.735Z,1022.32
2023-05-02T10:43:14.773Z,1022.31
2023-05-02T10:44:14.732Z,1022.40
2023-05-02T10:45:14.785Z,1022.30
2023-05-02T10:46:14.671Z,1022.34
2023-05-02T10:47:14.693Z,1022.32
2023-05-02T10:48:14.695Z,1022.29
2023-05-02T10:49:14.646Z,1022.33
2023-05-02T10:50:14.711Z,1022.32
2023-05-02T10:51:14.609Z,1022.31
2023-05-02T10:52:15.506Z,1022.32
2023-05-02T10:53:14.592Z,1022.32
2023-05-02T10:54:14.604Z,1022.34
2023-05-02T10:55:14.591Z,1022.30
2023-05-02T10:56:14.551Z,1022.31
2023-05-02T10:57:14.543Z,1022.29
2023-05-02T10:58:14.552Z,1022.29
2023-05-02T10:59:14.510Z,1022.31
2023-05-02T11:00:14.590Z,1022.29
2023-05-02T11:01:14.586Z,1022.28
2023-05-02T11:02:14.502Z,1022.23
2023-05-02T11:03:14.691Z,1022.23
2023-05-02T11:04:14.494Z,1022.25
2023-05-02T11:05:14.448Z,1022.24
2023-05-02T11:06:14.456Z,1022.25
2023-05-02T11:07:14.430Z,1022.21
2023-05-02T11:08:14.390Z,1022.25
2023-05-02T11:09:14.457Z,1022.26
2023-05-02T11:10:14.399Z,1022.25
2023-05-02T11:11:14.379Z,1022.24
2023-05-02T11:12:14.317Z,1022.22
2023-05-02T11:13:14.335Z,1022.24
2023-05-02T11:14:14.475Z,1022.25
2023-05-02T11:15:14.307Z,1022.29
2023-05-02T11:16:14.318Z,1022.26
2023-05-02T11:17:14.272Z,1022.32
2023-05-02T11:18:14.411Z,1022.28
2023-05-02T11:19:14.272Z,1022.31
2023-05-02T11:20:14.248Z,1022.33
2023-05-02T11:21:14.279Z,1022.29
2023-05-02T11:22:14.235Z,1022.25
2023-05-02T11:23:14.226Z,1022.24
2023-05-02T11:24:14.186Z,1022.25
2023-05-02T11:25:14.344Z,1022.25
2023-05-02T11:26:14.160Z,1022.22
2023-05-02T11:27:14.195Z,1022.20
2023-05-02T11:28:14.144Z,1022.20
2023-05-02T11:29:14.149Z,1022.21
2023-05-02T11:30:14.205Z,1022.16
2023-05-02T11:31:14.109Z,1022.18
2023-05-02T11:32:14.161Z,1022.22
2023-05-02T11:33:14.091Z,1022.07
2023-05-02T11:34:14.068Z,1022.11
2023-05-02T11:35:14.035Z,1022.13
2023-05-02T11:36:14.035Z,1022.16
2023-05-02T11:37:14.042Z,1022.15
2023-05-02T11:38:14.014Z,1022.13
2023-05-02T11:39:13.979Z,1022.13
2023-05-02T11:40:13.996Z,1022.18
2023-05-02T11:41:13.996Z,1022.14
2023-05-02T11:42:13.958Z,1022.15
2023-05-02T11:43:13.953Z,1022.21
2023-05-02T11:44:13.930Z,1022.18
2023-05-02T11:45:13.931Z,1022.24
2023-05-02T11:46:13.946Z,1022.20
2023-05-02T11:47:13.890Z,1022.23
2023-05-02T11:48:13.887Z,1022.21
2023-05-02T11:49:15.102Z,1022.21
2023-05-02T11:50:13.896Z,1022.25
2023-05-02T11:51:13.884Z,1022.26
2023-05-02T11:52:13.843Z,1022.31
2023-05-02T11:53:13.825Z,1022.33
2023-05-02T11:54:13.802Z,1022.36
2023-05-02T11:55:13.797Z,1022.39
2023-05-02T11:56:13.772Z,1022.38
2023-05-02T11:57:13.794Z,1022.36
2023-05-02T11:58:13.743Z,1022.35
2023-05-02T11:59:13.743Z,1022.42
2023-05-02T12:00:13.737Z,1022.40
2023-05-02T12:01:13.819Z,1022.40
2023-05-02T12:02:13.752Z,1022.32
2023-05-02T12:03:13.809Z,1022.38
2023-05-02T12:04:13.677Z,1022.36
2023-05-02T12:05:13.761Z,1022.42